Time;durP1;ratioP1;P1;durP2;ratioP2;P2;SDS_P1;SDS_P2;PMS_P1;PMS_P2;Temp;Humidity;BMP_temperature;BMP_pressure;BME280_temperature;BME280_humidity;BME280_pressure;Samples;Min_cycle;Max_cycle;Signal;HPM_P1;HPM_P2
2022/10/04 00:01:28;;;;;;;;;;;;;;;15.99;100.00;100386.88;5010121;28;20062;-78
2022/10/04 00:04:04;;;;;;;;;;;;;;;15.96;100.00;100376.47;5043524;28;20305;-77
2022/10/04 00:06:30;;;;;;;;;;;;;;;15.89;100.00;100368.38;5004209;28;19926;-77
2022/10/04 00:08:59;;;;;;;;;;;;;;;15.85;100.00;100358.16;5023231;28;19917;-77
2022/10/04 00:11:27;;;;;;;;;;;;;;;15.83;100.00;100363.84;5009614;28;20011;-77
2022/10/04 00:13:54;;;;;;;;;;;;;;;15.82;100.00;100356.72;5028708;28;19921;-78
2022/10/04 00:16:20;;;;;;;;;;;;;;;15.82;100.00;100362.16;5011393;28;21058;-78
2022/10/04 00:18:46;;;;;;;;;;;;;;;15.83;100.00;100370.06;5010334;28;19917;-77
2022/10/04 00:21:11;;;;;;;;;;;;;;;15.80;100.00;100365.09;5022842;28;19924;-78
2022/10/04 00:23:37;;;;;;;;;;;;;;;15.78;100.00;100356.34;5036785;28;19936;-77
2022/10/04 00:26:04;;;;;;;;;;;;;;;15.75;100.00;100359.50;5011216;28;19917;-78
2022/10/04 00:28:35;;;;;;;;;;;;;;;15.74;100.00;100349.69;5012341;28;20295;-78
2022/10/04 00:31:07;;;;;;;;;;;;;;;15.75;100.00;100332.41;5024780;28;19921;-78
2022/10/04 00:33:42;;;;;;;;;;;;;;;15.77;100.00;100326.75;5030024;28;19925;-78
2022/10/04 00:36:23;;;;;;;;;;;;;;;15.75;100.00;100318.84;4989702;28;20854;-79
2022/10/04 00:39:18;;;;;;;;;;;;;;;15.73;100.00;100293.00;5009927;28;19921;-78
2022/10/04 00:41:43;;;;;;;;;;;;;;;15.69;100.00;100313.47;4971840;28;19957;-79
2022/10/04 00:44:10;;;;;;;;;;;;;;;15.65;100.00;100304.91;5030034;28;19959;-78
2022/10/04 00:46:35;;;;;;;;;;;;;;;15.61;100.00;100300.97;4986376;28;19921;-78
2022/10/04 00:49:04;;;;;;;;;;;;;;;15.60;100.00;100300.16;5012393;28;20139;-79
2022/10/04 00:51:31;;;;;;;;;;;;;;;15.60;100.00;100292.03;5010963;28;19924;-78
2022/10/04 00:54:02;;;;;;;;;;;;;;;15.60;100.00;100283.06;5011658;28;19923;-78
2022/10/04 00:56:31;;;;;;;;;;;;;;;15.62;100.00;100291.81;5011480;28;19913;-77
2022/10/04 00:58:56;;;;;;;;;;;;;;;15.61;100.00;100279.28;5024507;28;19917;-78
2022/10/04 01:01:22;;;;;;;;;;;;;;;15.59;100.00;100287.66;5021845;28;20386;-80
2022/10/04 01:03:48;;;;;;;;;;;;;;;15.55;100.00;100270.16;5015652;28;19925;-77
2022/10/04 01:06:14;;;;;;;;;;;;;;;15.51;100.00;100274.38;4991881;28;19928;-78
2022/10/04 01:08:44;;;;;;;;;;;;;;;15.45;100.00;100277.94;5032100;28;19920;-78
2022/10/04 01:11:12;;;;;;;;;;;;;;;15.39;100.00;100276.13;5025976;28;19920;-79
2022/10/04 01:13:38;;;;;;;;;;;;;;;15.37;100.00;100267.38;5026336;28;19917;-78
2022/10/04 01:16:10;;;;;;;;;;;;;;;15.39;100.00;100268.84;5029063;28;19970;-78
2022/10/04 01:18:35;;;;;;;;;;;;;;;15.43;100.00;100257.56;5015517;28;19964;-77
2022/10/04 01:21:06;;;;;;;;;;;;;;;15.45;100.00;100248.16;5014693;28;19967;-78
2022/10/04 01:23:32;;;;;;;;;;;;;;;15.50;100.00;100247.50;5010820;28;19924;-77
2022/10/04 01:25:58;;;;;;;;;;;;;;;15.55;100.00;100237.66;5012277;28;19920;-77
2022/10/04 01:28:24;;;;;;;;;;;;;;;15.62;100.00;100237.63;5012630;28;19917;-77
2022/10/04 01:30:49;;;;;;;;;;;;;;;15.60;100.00;100228.88;5011402;28;20414;-79
2022/10/04 01:33:15;;;;;;;;;;;;;;;15.59;100.00;100230.75;5045422;28;19948;-78
2022/10/04 01:35:40;;;;;;;;;;;;;;;15.57;100.00;100223.91;5027155;28;20000;-77
2022/10/04 01:38:06;;;;;;;;;;;;;;;15.55;100.00;100226.00;5024147;28;19963;-78
2022/10/04 01:40:35;;;;;;;;;;;;;;;15.50;100.00;100220.41;5009469;28;19971;-77
2022/10/04 01:43:05;;;;;;;;;;;;;;;15.51;100.00;100214.78;5012137;28;20187;-78
2022/10/04 01:45:43;;;;;;;;;;;;;;;15.52;100.00;100207.47;4996166;28;19979;-78
2022/10/04 01:48:10;;;;;;;;;;;;;;;15.53;100.00;100204.56;5016009;28;20000;-78
2022/10/04 01:50:35;;;;;;;;;;;;;;;15.57;100.00;100191.38;5029547;28;19917;-77
2022/10/04 01:53:11;;;;;;;;;;;;;;;15.58;100.00;100188.44;5032072;28;19980;-78
2022/10/04 01:55:37;;;;;;;;;;;;;;;15.61;100.00;100188.00;4992595;28;19931;-77
2022/10/04 01:58:12;;;;;;;;;;;;;;;15.63;100.00;100185.06;5002416;28;20011;-78
2022/10/04 02:00:38;;;;;;;;;;;;;;;15.66;100.00;100183.78;5027854;28;20003;-77
2022/10/04 02:03:04;;;;;;;;;;;;;;;15.71;100.00;100182.09;5030587;28;19921;-77
2022/10/04 02:05:34;;;;;;;;;;;;;;;15.80;100.00;100178.06;4995836;28;19987;-78
2022/10/04 02:08:09;;;;;;;;;;;;;;;15.88;100.00;100173.38;5008449;28;19925;-77
2022/10/04 02:10:35;;;;;;;;;;;;;;;15.93;100.00;100160.81;5006386;28;19921;-78
2022/10/04 02:13:01;;;;;;;;;;;;;;;15.96;100.00;100163.06;5012503;28;19943;-77
2022/10/04 02:15:27;;;;;;;;;;;;;;;15.94;100.00;100142.66;5010671;28;19924;-77
2022/10/04 02:17:52;;;;;;;;;;;;;;;16.05;100.00;100150.03;5044263;28;19921;-77
2022/10/04 02:20:22;;;;;;;;;;;;;;;16.04;100.00;100151.09;5032317;28;19913;-78
2022/10/04 02:22:51;;;;;;;;;;;;;;;16.01;100.00;100152.38;5012556;28;20374;-79
2022/10/04 02:25:17;;;;;;;;;;;;;;;15.95;100.00;100141.59;5014946;28;20357;-78
2022/10/04 02:27:43;;;;;;;;;;;;;;;15.88;100.00;100138.13;5005621;28;19924;-78
2022/10/04 02:30:10;;;;;;;;;;;;;;;15.80;100.00;100123.00;5010419;28;19947;-78
2022/10/04 02:35:20;;;;;;;;;;;;;;;15.59;100.00;100113.41;5025805;28;19999;-78
2022/10/04 02:37:46;;;;;;;;;;;;;;;15.49;100.00;100113.09;5030975;28;20481;-78
2022/10/04 02:40:13;;;;;;;;;;;;;;;15.33;100.00;100123.44;5025716;28;19925;-78
2022/10/04 02:42:50;;;;;;;;;;;;;;;15.22;100.00;100128.78;5012994;28;19921;-79
2022/10/04 02:45:16;;;;;;;;;;;;;;;15.12;100.00;100123.84;5010794;28;19944;-78
2022/10/04 02:47:46;;;;;;;;;;;;;;;15.09;100.00;100118.88;5030520;28;19957;-77
2022/10/04 02:50:29;;;;;;;;;;;;;;;15.03;100.00;100115.19;4996637;28;19917;-78
2022/10/04 02:53:14;;;;;;;;;;;;;;;14.96;100.00;100114.41;5040754;28;20386;-76
2022/10/04 02:55:42;;;;;;;;;;;;;;;14.89;100.00;100113.59;5000298;28;20393;-76
2022/10/04 02:58:12;;;;;;;;;;;;;;;14.83;100.00;100109.09;5024230;28;19913;-76
2022/10/04 03:00:48;;;;;;;;;;;;;;;14.79;100.00;100108.69;5025494;28;19917;-76
2022/10/04 03:03:16;;;;;;;;;;;;;;;14.75;100.00;100102.06;4996654;28;20330;-75
2022/10/04 03:06:02;;;;;;;;;;;;;;;14.75;100.00;100103.94;5028152;28;20407;-76
2022/10/04 03:08:28;;;;;;;;;;;;;;;14.72;100.00;100100.63;5010261;28;20494;-76
2022/10/04 03:10:54;;;;;;;;;;;;;;;14.69;100.00;100092.13;5016182;28;19925;-76
2022/10/04 03:13:20;;;;;;;;;;;;;;;14.68;100.00;100085.03;5028267;28;19931;-75
2022/10/04 03:15:46;;;;;;;;;;;;;;;14.67;100.00;100091.50;4992006;28;19917;-76
2022/10/04 03:18:12;;;;;;;;;;;;;;;14.66;100.00;100081.72;5008953;28;19924;-76
2022/10/04 03:20:38;;;;;;;;;;;;;;;14.66;100.00;100087.13;4994916;28;19963;-76
2022/10/04 03:23:03;;;;;;;;;;;;;;;14.65;100.00;100071.94;4989902;28;19921;-76
2022/10/04 03:25:29;;;;;;;;;;;;;;;14.64;100.00;100078.41;5009277;28;20145;-77
2022/10/04 03:27:55;;;;;;;;;;;;;;;14.64;100.00;100073.00;4994814;28;19913;-75
2022/10/04 03:30:21;;;;;;;;;;;;;;;14.63;100.00;100068.63;5036983;28;19921;-77
2022/10/04 03:32:47;;;;;;;;;;;;;;;14.63;100.00;100074.88;5019377;28;19932;-77
2022/10/04 03:35:35;;;;;;;;;;;;;;;14.63;100.00;100061.34;4991339;28;19924;-76
2022/10/04 03:38:03;;;;;;;;;;;;;;;14.64;100.00;100067.59;5008709;28;20287;-76
2022/10/04 03:40:29;;;;;;;;;;;;;;;14.63;100.00;100064.06;5010933;28;19963;-75
2022/10/04 03:42:55;;;;;;;;;;;;;;;14.61;100.00;100062.63;4991995;28;19917;-76
2022/10/04 03:45:21;;;;;;;;;;;;;;;14.62;100.00;100048.03;5000142;28;19924;-76
2022/10/04 03:47:47;;;;;;;;;;;;;;;14.62;100.00;100043.44;5020445;28;20298;-76
2022/10/04 03:50:23;;;;;;;;;;;;;;;14.63;100.00;100049.69;5024602;28;19917;-76
2022/10/04 03:52:50;;;;;;;;;;;;;;;14.63;100.00;100049.69;5011947;28;20007;-76
2022/10/04 03:55:15;;;;;;;;;;;;;;;14.62;100.00;100043.44;5029873;28;20432;-76
2022/10/04 03:57:41;;;;;;;;;;;;;;;14.63;100.00;100045.13;5025166;28;19917;-77
2022/10/04 04:00:07;;;;;;;;;;;;;;;14.62;100.00;100035.34;5021750;28;19917;-76
2022/10/04 04:02:32;;;;;;;;;;;;;;;14.66;100.00;100033.00;5012324;28;20071;-77
2022/10/04 04:05:28;;;;;;;;;;;;;;;14.66;100.00;100039.25;5015776;28;20355;-75
2022/10/04 04:07:59;;;;;;;;;;;;;;;14.67;100.00;100018.44;4994218;28;19964;-77
2022/10/04 04:10:26;;;;;;;;;;;;;;;14.65;100.00;100023.25;5028965;28;20004;-76
2022/10/04 04:12:57;;;;;;;;;;;;;;;14.64;100.00;100032.41;5012304;28;20402;-77
2022/10/04 04:15:26;;;;;;;;;;;;;;;14.64;100.00;100024.31;5026681;28;19924;-77
2022/10/04 04:17:51;;;;;;;;;;;;;;;14.64;100.00;100030.53;5027636;28;20375;-77
2022/10/04 04:20:27;;;;;;;;;;;;;;;14.65;100.00;100026.78;5021513;28;19971;-77
2022/10/04 04:22:57;;;;;;;;;;;;;;;14.66;100.00;100022.19;5009640;28;19924;-76
2022/10/04 04:25:22;;;;;;;;;;;;;;;14.65;100.00;100021.34;5041899;28;20005;-76
2022/10/04 04:27:49;;;;;;;;;;;;;;;14.65;100.00;100026.78;5011970;28;20012;-77
2022/10/04 04:30:15;;;;;;;;;;;;;;;14.65;100.00;100010.53;5006722;28;19960;-76
2022/10/04 04:32:43;;;;;;;;;;;;;;;14.66;100.00;100028.44;5019894;28;19921;-77
2022/10/04 04:35:22;;;;;;;;;;;;;;;14.67;100.00;100013.03;5009660;28;19971;-76
2022/10/04 04:38:14;;;;;;;;;;;;;;;14.67;100.00;100016.56;5021785;28;19932;-76
2022/10/04 04:40:40;;;;;;;;;;;;;;;14.67;100.00;100011.16;5012318;28;20423;-76
2022/10/04 04:43:05;;;;;;;;;;;;;;;14.68;100.00;100006.56;5024620;28;20024;-75
2022/10/04 04:45:31;;;;;;;;;;;;;;;14.68;100.00;100011.97;5009959;28;19917;-78
2022/10/04 04:47:57;;;;;;;;;;;;;;;14.68;100.00;100015.50;5007831;28;19917;-76
2022/10/04 04:50:23;;;;;;;;;;;;;;;14.68;100.00;100015.50;4991901;28;19964;-78
2022/10/04 04:52:53;;;;;;;;;;;;;;;14.70;100.00;100007.19;5007262;28;20383;-78
2022/10/04 04:55:23;;;;;;;;;;;;;;;14.68;100.00;100004.69;4993983;28;19931;-76
2022/10/04 04:57:49;;;;;;;;;;;;;;;14.69;100.00;100010.94;4993046;28;20295;-78
2022/10/04 05:00:25;;;;;;;;;;;;;;;14.70;100.00;100013.41;5010536;28;19917;-79
2022/10/04 05:02:54;;;;;;;;;;;;;;;14.71;100.00;100009.66;5023595;28;20012;-78
2022/10/04 05:05:19;;;;;;;;;;;;;;;14.72;100.00;100005.91;4993347;28;20121;-77
2022/10/04 05:07:45;;;;;;;;;;;;;;;14.73;100.00;100007.53;5007947;28;19917;-78
2022/10/04 05:10:21;;;;;;;;;;;;;;;14.75;100.00;100001.09;5025507;28;19917;-78
2022/10/04 05:12:47;;;;;;;;;;;;;;;14.75;100.00;100001.94;5007113;28;20028;-78
2022/10/04 05:15:12;;;;;;;;;;;;;;;14.78;100.00;100006.06;5043005;28;19939;-78
2022/10/04 05:17:38;;;;;;;;;;;;;;;14.76;100.00;99995.44;5010408;28;20378;-78
2022/10/04 05:20:04;;;;;;;;;;;;;;;14.77;100.00;100007.94;5027289;28;19920;-79
2022/10/04 05:22:29;;;;;;;;;;;;;;;14.77;100.00;100016.06;5025251;28;19960;-78
2022/10/04 05:24:55;;;;;;;;;;;;;;;14.80;100.00;100023.75;5021098;28;19921;-78
2022/10/04 05:27:28;;;;;;;;;;;;;;;14.81;100.00;100022.69;5026160;28;19974;-77
2022/10/04 05:30:00;;;;;;;;;;;;;;;14.82;100.00;100021.66;5028765;28;20011;-78
2022/10/04 05:32:27;;;;;;;;;;;;;;;14.83;100.00;100027.88;5035558;28;19917;-78
2022/10/04 05:34:53;;;;;;;;;;;;;;;14.84;100.00;100018.72;5021780;28;19921;-78
2022/10/04 05:37:28;;;;;;;;;;;;;;;14.84;100.00;100022.22;5010717;28;20008;-78
2022/10/04 05:40:00;;;;;;;;;;;;;;;14.86;100.00;100019.31;5026958;28;20356;-79
2022/10/04 05:42:31;;;;;;;;;;;;;;;14.89;100.00;100033.22;5028493;28;19917;-78
2022/10/04 05:44:57;;;;;;;;;;;;;;;14.88;100.00;100026.16;5007887;28;19995;-78
2022/10/04 05:47:25;;;;;;;;;;;;;;;14.91;100.00;100030.31;4995501;28;20067;-79
2022/10/04 05:50:16;;;;;;;;;;;;;;;14.92;100.00;100027.41;4991196;28;20011;-79
2022/10/04 05:52:42;;;;;;;;;;;;;;;14.95;100.00;100018.81;5002760;28;19975;-78
2022/10/04 05:55:10;;;;;;;;;;;;;;;14.99;100.00;100021.09;5046539;28;20317;-78
2022/10/04 05:57:55;;;;;;;;;;;;;;;15.00;100.00;100023.53;5022906;28;20362;-77
2022/10/04 06:00:20;;;;;;;;;;;;;;;15.02;100.00;100012.50;5024272;28;19932;-78
2022/10/04 06:02:46;;;;;;;;;;;;;;;15.04;100.00;100038.31;5031486;28;20155;-78
2022/10/04 06:05:29;;;;;;;;;;;;;;;14.95;100.00;100040.47;5028402;28;19913;-78
2022/10/04 06:08:07;;;;;;;;;;;;;;;14.66;100.00;100046.53;5019352;28;19948;-78
2022/10/04 06:10:37;;;;;;;;;;;;;;;14.44;100.00;100056.88;5007932;28;20389;-78
2022/10/04 06:13:02;;;;;;;;;;;;;;;14.32;100.00;100056.75;5022617;28;19924;-78
2022/10/04 06:15:37;;;;;;;;;;;;;;;14.21;100.00;100058.25;5023535;28;20020;-78
2022/10/04 06:18:18;;;;;;;;;;;;;;;14.12;100.00;100054.13;5010754;28;19917;-78
2022/10/04 06:20:50;;;;;;;;;;;;;;;14.05;100.00;100065.00;5031088;28;19917;-78
2022/10/04 06:23:17;;;;;;;;;;;;;;;13.99;100.00;100065.03;5014482;28;19925;-76
2022/10/04 06:25:50;;;;;;;;;;;;;;;13.90;100.00;100056.34;5004818;28;19963;-77
2022/10/04 06:28:18;;;;;;;;;;;;;;;13.82;100.00;100052.00;5026852;28;19937;-77
2022/10/04 06:30:52;;;;;;;;;;;;;;;13.77;100.00;100068.03;5029502;28;19927;-76
2022/10/04 06:33:20;;;;;;;;;;;;;;;13.76;100.00;100081.72;5026129;28;20024;-77
2022/10/04 06:35:50;;;;;;;;;;;;;;;13.75;100.00;100101.69;5009560;28;19924;-77
2022/10/04 06:38:24;;;;;;;;;;;;;;;13.73;100.00;100117.28;4994537;28;20477;-77
2022/10/04 06:40:56;;;;;;;;;;;;;;;13.71;100.00;100114.00;5008264;28;20071;-77
2022/10/04 06:43:27;;;;;;;;;;;;;;;13.71;100.00;100127.50;5024836;28;19917;-76
2022/10/04 06:46:16;;;;;;;;;;;;;;;13.69;100.00;100124.19;5028301;28;19921;-77
2022/10/04 06:48:55;;;;;;;;;;;;;;;13.68;100.00;100122.50;5029396;28;19921;-77
2022/10/04 06:51:31;;;;;;;;;;;;;;;13.67;100.00;100104.63;5024336;28;20074;-76
2022/10/04 06:54:17;;;;;;;;;;;;;;;13.66;100.00;100113.78;4996396;28;20347;-76
2022/10/04 06:57:01;;;;;;;;;;;;;;;13.65;100.00;100110.25;5026190;28;20035;-77
2022/10/04 06:59:27;;;;;;;;;;;;;;;13.64;100.00;100095.91;5023534;28;19921;-77
2022/10/04 07:01:56;;;;;;;;;;;;;;;13.64;100.00;100092.38;5028330;28;19979;-77
2022/10/04 07:04:25;;;;;;;;;;;;;;;13.64;100.00;100084.28;5022031;28;19921;-77
2022/10/04 07:06:52;;;;;;;;;;;;;;;13.63;100.00;100104.25;5031781;28;19921;-76
2022/10/04 07:09:23;;;;;;;;;;;;;;;13.63;100.00;100134.78;5008802;28;19918;-77
2022/10/04 07:11:54;;;;;;;;;;;;;;;13.67;100.00;100137.06;5009416;28;19920;-76
2022/10/04 07:14:30;;;;;;;;;;;;;;;13.71;100.00;100130.19;5003772;28;19940;-78
2022/10/04 07:17:04;;;;;;;;;;;;;;;13.73;100.00;100142.44;4990029;28;19917;-79
2022/10/04 07:19:34;;;;;;;;;;;;;;;13.75;100.00;100144.94;5022400;28;19916;-77
2022/10/04 07:22:23;;;;;;;;;;;;;;;13.76;100.00;100157.38;4991590;28;19925;-78
2022/10/04 07:25:07;;;;;;;;;;;;;;;13.76;100.00;100149.28;4997794;28;19916;-78
2022/10/04 07:27:43;;;;;;;;;;;;;;;13.76;100.00;100158.25;5032720;28;19913;-77
2022/10/04 07:30:13;;;;;;;;;;;;;;;13.77;100.00;100159.91;4995610;28;20030;-77
2022/10/04 07:32:43;;;;;;;;;;;;;;;13.79;100.00;100184.00;5011535;28;20655;-77
2022/10/04 07:35:09;;;;;;;;;;;;;;;13.80;100.00;100180.25;5006332;28;19924;-78
2022/10/04 07:37:35;;;;;;;;;;;;;;;13.84;100.00;100133.69;5004502;28;19917;-77
2022/10/04 07:40:03;;;;;;;;;;;;;;;13.88;100.00;100154.88;5008660;28;19947;-77
2022/10/04 07:42:33;;;;;;;;;;;;;;;13.88;100.00;100161.13;5030213;28;19913;-77
2022/10/04 07:45:14;;;;;;;;;;;;;;;13.92;100.00;100159.66;5032718;28;20547;-76
2022/10/04 07:47:40;;;;;;;;;;;;;;;13.96;100.00;100195.19;4996668;28;20416;-77
2022/10/04 07:50:22;;;;;;;;;;;;;;;13.98;100.00;100187.72;5007282;28;19925;-79
2022/10/04 07:52:47;;;;;;;;;;;;;;;14.03;100.00;100199.53;5012218;28;19959;-76
2022/10/04 07:55:13;;;;;;;;;;;;;;;14.08;100.00;100171.88;5022668;28;20335;-76
2022/10/04 07:58:02;;;;;;;;;;;;;;;14.14;100.00;100178.31;5026660;28;20039;-75
2022/10/04 08:00:34;;;;;;;;;;;;;;;14.17;100.00;100200.31;4998364;28;19967;-77
2022/10/04 08:03:08;;;;;;;;;;;;;;;14.16;100.00;100190.56;5026107;28;20375;-78
2022/10/04 08:05:40;;;;;;;;;;;;;;;14.16;100.00;100205.97;5043949;28;19939;-77
2022/10/04 08:08:21;;;;;;;;;;;;;;;14.14;100.00;100211.56;5028173;28;19966;-78
2022/10/04 08:11:04;;;;;;;;;;;;;;;14.13;100.00;100203.66;5011323;28;20401;-78
2022/10/04 08:13:37;;;;;;;;;;;;;;;14.15;100.00;100207.81;5008364;28;19917;-77
2022/10/04 08:16:03;;;;;;;;;;;;;;;14.15;100.00;100209.69;5027509;28;20382;-77
2022/10/04 08:18:32;;;;;;;;;;;;;;;14.14;100.00;100200.75;4991555;28;19917;-75
2022/10/04 08:20:58;;;;;;;;;;;;;;;14.16;100.00;100177.03;5022167;28;19935;-78
2022/10/04 08:23:43;;;;;;;;;;;;;;;14.21;100.00;100176.38;5013066;28;19947;-77
2022/10/04 08:26:25;;;;;;;;;;;;;;;14.21;100.00;100174.53;5028095;28;19948;-77
2022/10/04 08:31:44;;;;;;;;;;;;;;;14.23;100.00;100193.22;5023849;28;20426;-77
2022/10/04 08:34:28;;;;;;;;;;;;;;;14.26;100.00;100214.44;5035856;28;19960;-77
2022/10/04 08:36:58;;;;;;;;;;;;;;;14.33;100.00;100225.25;5026335;28;19917;-77
2022/10/04 08:39:33;;;;;;;;;;;;;;;14.39;100.00;100211.69;5021662;28;19960;-77
2022/10/04 08:42:07;;;;;;;;;;;;;;;14.49;100.00;100214.75;5026213;28;19936;-77
2022/10/04 08:44:42;;;;;;;;;;;;;;;14.59;100.00;100229.75;5027535;28;19946;-77
2022/10/04 08:47:20;;;;;;;;;;;;;;;14.64;100.00;100219.94;5011723;28;20003;-78
2022/10/04 08:49:58;;;;;;;;;;;;;;;14.69;100.00;100238.25;5023623;28;19985;-78
2022/10/04 08:52:23;;;;;;;;;;;;;;;14.78;100.00;100231.53;5029391;28;19917;-78
2022/10/04 08:54:49;;;;;;;;;;;;;;;15.02;100.00;100215.56;5030614;28;19999;-79
2022/10/04 08:57:33;;;;;;;;;;;;;;;15.44;100.00;100218.59;5029357;28;20079;-78
2022/10/04 09:00:06;;;;;;;;;;;;;;;15.89;100.00;100226.56;5025406;28;19924;-79
2022/10/04 09:02:50;;;;;;;;;;;;;;;16.05;100.00;100228.69;5036926;28;20330;-80
2022/10/04 09:05:28;;;;;;;;;;;;;;;16.12;100.00;100236.75;5021886;28;19971;-79
2022/10/04 09:08:03;;;;;;;;;;;;;;;16.35;100.00;100220.59;5030880;28;20012;-79
2022/10/04 09:10:44;;;;;;;;;;;;;;;16.59;100.00;100218.03;5019443;28;20358;-78
2022/10/04 09:13:29;;;;;;;;;;;;;;;16.91;100.00;100213.25;5011195;28;20294;-78
2022/10/04 09:16:01;;;;;;;;;;;;;;;16.64;100.00;100229.84;5027033;28;19921;-78
2022/10/04 09:18:43;;;;;;;;;;;;;;;16.15;100.00;100237.13;5029052;28;20394;-79
2022/10/04 09:21:09;;;;;;;;;;;;;;;15.74;100.00;100243.97;5026868;28;19940;-79
2022/10/04 09:23:36;;;;;;;;;;;;;;;15.56;100.00;100233.09;5029478;28;20267;-79
2022/10/04 09:26:13;;;;;;;;;;;;;;;15.55;100.00;100228.69;5032823;28;19923;-79
2022/10/04 09:28:39;;;;;;;;;;;;;;;15.90;100.00;100233.63;5029499;28;19923;-79
2022/10/04 09:31:07;;;;;;;;;;;;;;;16.15;100.00;100242.56;5032145;28;20015;-78
2022/10/04 09:33:48;;;;;;;;;;;;;;;16.29;100.00;100253.25;5033500;28;19928;-78
2022/10/04 09:36:21;;;;;;;;;;;;;;;16.33;100.00;100240.91;5018184;28;19959;-78
2022/10/04 09:38:46;;;;;;;;;;;;;;;16.50;100.00;100236.50;5031330;28;19917;-79
2022/10/04 09:41:31;;;;;;;;;;;;;;;17.16;100.00;100236.72;5033490;28;20008;-78
2022/10/04 09:44:13;;;;;;;;;;;;;;;17.79;100.00;100217.91;5032926;28;19917;-79
2022/10/04 09:46:50;;;;;;;;;;;;;;;17.42;100.00;100225.44;5027769;28;19925;-79
2022/10/04 09:49:21;;;;;;;;;;;;;;;16.86;100.00;100237.56;5030917;28;20290;-79
2022/10/04 09:51:50;;;;;;;;;;;;;;;16.55;100.00;100238.56;5029567;28;19924;-79
2022/10/04 09:54:31;;;;;;;;;;;;;;;16.47;100.00;100223.41;5044160;28;19940;-79
2022/10/04 09:57:13;;;;;;;;;;;;;;;16.53;100.00;100225.19;5013541;28;19963;-79
2022/10/04 09:59:52;;;;;;;;;;;;;;;16.35;100.00;100219.78;5013289;28;19960;-80
2022/10/04 10:02:37;;;;;;;;;;;;;;;16.07;100.00;100234.72;5047713;28;19937;-79
2022/10/04 10:05:17;;;;;;;;;;;;;;;15.88;100.00;100243.84;5044579;28;19917;-80
2022/10/04 10:07:55;;;;;;;;;;;;;;;15.73;100.00;100245.03;4996518;28;20360;-79
2022/10/04 10:16:04;;;;;;;;;;;;;;;15.60;100.00;100213.44;5036081;28;19922;-79
2022/10/04 10:18:29;;;;;;;;;;;;;;;15.61;100.00;100212.41;5032578;28;20385;-79
2022/10/04 10:21:14;;;;;;;;;;;;;;;15.51;100.00;100232.91;5030713;28;19928;-79
2022/10/04 10:23:40;;;;;;;;;;;;;;;15.31;100.00;100260.97;5009973;28;20024;-78
2022/10/04 10:26:24;;;;;;;;;;;;;;;15.12;100.00;100262.78;5032208;28;20003;-79
2022/10/04 10:29:09;;;;;;;;;;;;;;;14.97;100.00;100277.66;5029906;28;20015;-79
2022/10/04 10:31:50;;;;;;;;;;;;;;;14.90;100.00;100262.28;5032205;28;19921;-80
2022/10/04 10:34:30;;;;;;;;;;;;;;;14.92;100.00;100259.34;4995093;28;20306;-78
2022/10/04 10:37:09;;;;;;;;;;;;;;;14.98;100.00;100255.78;5024976;28;19917;-79
2022/10/04 10:39:55;;;;;;;;;;;;;;;15.10;100.00;100253.19;4997736;28;19917;-80
2022/10/04 10:42:26;;;;;;;;;;;;;;;15.29;100.00;100257.66;5029355;28;20445;-79
2022/10/04 10:44:55;;;;;;;;;;;;;;;15.42;100.00;100254.00;5033182;28;19919;-79
2022/10/04 10:47:33;;;;;;;;;;;;;;;15.45;100.00;100264.41;5032689;28;20055;-79
2022/10/04 10:50:17;;;;;;;;;;;;;;;15.44;100.00;100267.34;5016579;28;19912;-79
2022/10/04 10:52:46;;;;;;;;;;;;;;;15.35;100.00;100264.09;5028436;28;20267;-78
2022/10/04 10:55:20;;;;;;;;;;;;;;;15.27;100.00;100261.63;5032101;28;20008;-79
2022/10/04 10:57:46;;;;;;;;;;;;;;;15.24;100.00;100252.09;5028239;28;19917;-79
2022/10/04 11:00:16;;;;;;;;;;;;;;;15.28;100.00;100245.16;5031714;28;19966;-79
2022/10/04 11:02:53;;;;;;;;;;;;;;;15.35;100.00;100262.22;5013857;28;19943;-79
2022/10/04 11:05:37;;;;;;;;;;;;;;;15.40;100.00;100264.25;5033398;28;19917;-79
2022/10/04 11:08:06;;;;;;;;;;;;;;;15.46;100.00;100270.69;5026466;28;19987;-79
2022/10/04 11:10:35;;;;;;;;;;;;;;;15.57;100.00;100276.22;5014024;28;19940;-79
2022/10/04 11:13:00;;;;;;;;;;;;;;;15.78;100.00;100282.34;5021965;28;19995;-79
2022/10/04 11:15:37;;;;;;;;;;;;;;;15.96;100.00;100273.41;5028414;28;20012;-79
2022/10/04 11:18:02;;;;;;;;;;;;;;;16.11;100.00;100264.91;4995708;28;19924;-80
2022/10/04 11:20:31;;;;;;;;;;;;;;;16.13;100.00;100250.06;5019032;28;19917;-80
2022/10/04 11:23:16;;;;;;;;;;;;;;;16.20;100.00;100245.41;5044600;28;20430;-79
2022/10/04 11:26:00;;;;;;;;;;;;;;;16.27;100.00;100240.75;5028408;28;20417;-79
2022/10/04 11:28:45;;;;;;;;;;;;;;;16.31;100.00;100243.00;5024753;28;19916;-79
2022/10/04 11:31:31;;;;;;;;;;;;;;;16.25;100.00;100231.19;5026020;28;20564;-80
2022/10/04 11:34:02;;;;;;;;;;;;;;;16.18;100.00;100239.38;5031915;28;19916;-79
2022/10/04 11:36:27;;;;;;;;;;;;;;;16.25;100.00;100236.63;5043892;28;19920;-81
2022/10/04 11:39:01;;;;;;;;;;;;;;;16.23;100.00;100234.13;5029801;28;19917;-78
2022/10/04 11:41:38;;;;;;;;;;;;;;;16.15;100.00;100226.28;5013819;28;19932;-78
2022/10/04 11:44:03;;;;;;;;;;;;;;;16.22;100.00;100220.75;5043809;28;20031;-77
2022/10/04 11:46:38;;;;;;;;;;;;;;;16.48;100.00;100206.06;5014661;28;20050;-80
2022/10/04 11:49:22;;;;;;;;;;;;;;;16.92;100.00;100194.00;5031329;28;19913;-79
2022/10/04 11:51:55;;;;;;;;;;;;;;;17.32;100.00;100196.09;5046471;28;20411;-78
2022/10/04 11:54:29;;;;;;;;;;;;;;;17.57;100.00;100212.22;5027883;28;19935;-78
2022/10/04 11:56:57;;;;;;;;;;;;;;;17.61;100.00;100204.41;5037012;28;19974;-79
2022/10/04 11:59:27;;;;;;;;;;;;;;;17.66;100.00;100218.13;5023917;28;20363;-78
2022/10/04 12:02:12;;;;;;;;;;;;;;;17.64;100.00;100219.41;5026885;28;20367;-77
2022/10/04 12:04:38;;;;;;;;;;;;;;;17.56;100.00;100224.13;5011366;28;20228;-78
2022/10/04 12:07:22;;;;;;;;;;;;;;;17.54;100.00;100218.13;5026321;28;19917;-79
2022/10/04 12:09:57;;;;;;;;;;;;;;;17.40;100.00;100221.28;5021311;28;19917;-78
2022/10/04 12:12:38;;;;;;;;;;;;;;;17.07;100.00;100238.94;5029576;28;19944;-77
2022/10/04 12:15:22;;;;;;;;;;;;;;;16.79;100.00;100236.81;5015115;28;19979;-77
2022/10/04 12:18:07;;;;;;;;;;;;;;;16.66;100.00;100235.88;5028537;28;19916;-78
2022/10/04 12:20:52;;;;;;;;;;;;;;;16.60;100.00;100238.69;5030250;28;19920;-79
2022/10/04 12:23:36;;;;;;;;;;;;;;;16.58;100.00;100233.50;5003662;28;19932;-77
2022/10/04 12:26:20;;;;;;;;;;;;;;;16.48;100.00;100235.91;5020093;28;19921;-79
2022/10/04 12:28:46;;;;;;;;;;;;;;;16.40;100.00;100242.47;5021228;28;19917;-77
2022/10/04 12:31:31;;;;;;;;;;;;;;;16.40;100.00;100236.22;5025923;28;19983;-78
2022/10/04 12:34:18;;;;;;;;;;;;;;;16.40;100.00;100228.06;5040807;28;19917;-77
2022/10/04 12:36:59;;;;;;;;;;;;;;;16.48;100.00;100220.47;5022658;28;19967;-78
2022/10/04 12:39:43;;;;;;;;;;;;;;;16.56;100.00;100224.75;5024589;28;19928;-79
2022/10/04 12:42:21;;;;;;;;;;;;;;;16.55;100.00;100214.94;5026111;28;19917;-78
2022/10/04 12:44:49;;;;;;;;;;;;;;;16.47;100.00;100221.50;5008849;28;19917;-78
2022/10/04 12:47:34;;;;;;;;;;;;;;;16.40;100.00;100223.47;5027737;28;19999;-77
2022/10/04 12:50:03;;;;;;;;;;;;;;;16.31;100.00;100229.44;5040027;28;19979;-79
2022/10/04 12:52:31;;;;;;;;;;;;;;;16.18;100.00;100222.28;5006660;28;19917;-78
2022/10/04 12:55:06;;;;;;;;;;;;;;;16.17;100.00;100212.50;5012522;28;19917;-77
2022/10/04 12:57:51;;;;;;;;;;;;;;;16.25;100.00;100215.72;5013637;28;19916;-78
2022/10/04 13:00:18;;;;;;;;;;;;;;;16.27;100.00;100219.06;5029364;28;19920;-77
2022/10/04 13:02:50;;;;;;;;;;;;;;;16.22;100.00;100216.19;5009269;28;19925;-78
2022/10/04 13:05:16;;;;;;;;;;;;;;;16.21;100.00;100209.09;5024684;28;19917;-78